createdAt,value
2023-02-27T08:04:12.649Z,3.47
2023-02-27T08:06:39.854Z,3.50
2023-02-27T08:09:06.675Z,3.80
2023-02-27T08:11:33.433Z,3.30
2023-02-27T08:14:01.542Z,3.47
2023-02-27T08:16:30.777Z,3.67
2023-02-27T08:18:57.904Z,4.50
2023-02-27T08:21:24.958Z,3.20
2023-02-27T08:23:51.729Z,2.70
2023-02-27T08:26:18.652Z,3.35
2023-02-27T08:28:45.764Z,2.80
2023-02-27T08:31:12.544Z,3.63
2023-02-27T08:33:39.429Z,3.10
2023-02-27T08:36:07.420Z,2.83
2023-02-27T08:38:34.123Z,3.35
2023-02-27T08:41:00.982Z,3.20
2023-02-27T08:43:27.689Z,2.85
2023-02-27T08:45:54.491Z,3.20
2023-02-27T08:48:21.334Z,2.95
2023-02-27T08:50:48.148Z,3.00
2023-02-27T08:53:14.876Z,3.13
2023-02-27T08:55:42.516Z,2.90
2023-02-27T08:58:10.452Z,3.10
2023-02-27T09:00:37.293Z,2.88
2023-02-27T09:03:04.139Z,2.97
2023-02-27T09:05:35.042Z,2.90
2023-02-27T09:08:02.591Z,3.00
2023-02-27T09:10:29.506Z,2.90
2023-02-27T09:12:56.212Z,2.97
2023-02-27T09:15:24.213Z,3.17
2023-02-27T09:17:50.969Z,3.22
2023-02-27T09:20:17.896Z,3.25
2023-02-27T09:22:44.611Z,2.55
2023-02-27T09:25:11.298Z,2.15
2023-02-27T09:27:37.984Z,2.00
2023-02-27T09:30:05.380Z,2.35
2023-02-27T09:32:32.665Z,2.45
2023-02-27T09:35:00.419Z,1.90
2023-02-27T09:37:27.104Z,1.67
2023-02-27T09:39:53.863Z,2.28
2023-02-27T09:42:33.380Z,2.20
2023-02-27T09:45:05.983Z,2.20
2023-02-27T09:47:39.554Z,2.33
2023-02-27T09:50:47.064Z,2.83
2023-02-27T09:53:31.092Z,3.13
2023-02-27T09:56:09.959Z,1.92
2023-02-27T09:58:57.793Z,1.55
2023-02-27T10:01:37.164Z,2.17
2023-02-27T10:04:24.311Z,2.25
2023-02-27T10:07:16.843Z,2.00
2023-02-27T10:09:58.629Z,1.95
2023-02-27T10:12:36.304Z,2.00
2023-02-27T10:15:20.328Z,2.05
2023-02-27T10:17:56.625Z,2.20
2023-02-27T10:20:36.597Z,2.00
2023-02-27T10:23:20.495Z,2.30
2023-02-27T10:25:50.649Z,2.47
2023-02-27T10:28:20.606Z,2.42
2023-02-27T10:30:54.816Z,2.28
2023-02-27T10:33:32.585Z,3.25
2023-02-27T10:36:01.876Z,2.80
2023-02-27T10:38:37.480Z,2.45
2023-02-27T10:41:05.658Z,2.20
2023-02-27T10:43:32.404Z,2.45
2023-02-27T10:46:07.223Z,2.03
2023-02-27T10:48:33.952Z,2.25
2023-02-27T10:51:32.807Z,2.50
2023-02-27T10:54:20.980Z,2.13
2023-02-27T10:56:59.996Z,2.63
2023-02-27T10:59:31.512Z,2.63
2023-02-27T11:02:06.108Z,1.92
2023-02-27T11:04:40.521Z,2.50
2023-02-27T11:07:11.543Z,2.15
2023-02-27T11:09:38.511Z,1.92
2023-02-27T11:12:42.233Z,2.08
2023-02-27T11:15:14.998Z,2.30
2023-02-27T11:17:43.606Z,2.30
2023-02-27T11:20:40.656Z,1.60
2023-02-27T11:23:16.350Z,2.00
2023-02-27T11:25:44.037Z,2.15
2023-02-27T11:28:30.470Z,2.22
2023-02-27T11:31:16.229Z,1.83
2023-02-27T11:33:57.505Z,2.13
2023-02-27T11:36:42.904Z,2.13
2023-02-27T11:39:26.213Z,2.20
2023-02-27T11:41:55.428Z,2.00
2023-02-27T11:44:32.755Z,1.98
2023-02-27T11:47:20.125Z,1.85
2023-02-27T11:50:13.546Z,1.83
2023-02-27T11:53:07.487Z,2.28
2023-02-27T11:55:35.706Z,1.73
2023-02-27T11:58:12.071Z,1.38
2023-02-27T12:01:08.561Z,1.50
2023-02-27T12:03:51.219Z,1.35
2023-02-27T12:06:28.648Z,1.85
2023-02-27T12:09:00.850Z,2.33
2023-02-27T12:11:36.340Z,2.65
2023-02-27T12:14:16.570Z,2.10
2023-02-27T12:16:50.657Z,2.03
2023-02-27T12:19:30.475Z,2.10
2023-02-27T12:22:04.528Z,2.05
2023-02-27T12:24:44.860Z,1.88
2023-02-27T12:27:43.835Z,2.20
2023-02-27T12:30:29.501Z,1.95
2023-02-27T12:33:34.061Z,1.92
2023-02-27T12:36:03.800Z,1.50
2023-02-27T12:38:31.703Z,1.38
2023-02-27T12:41:27.517Z,1.27
2023-02-27T12:44:07.977Z,1.20
2023-02-27T12:50:01.438Z,1.65
2023-02-27T12:52:39.879Z,1.33
2023-02-27T12:55:23.567Z,1.40
2023-02-27T12:58:07.466Z,1.70
2023-02-27T13:04:25.894Z,1.40
2023-02-27T13:07:09.167Z,1.20
2023-02-27T13:09:44.353Z,1.40
2023-02-27T13:12:29.534Z,1.20
2023-02-27T13:15:05.563Z,2.10
2023-02-27T13:17:43.922Z,1.70
2023-02-27T13:20:40.272Z,1.55
2023-02-27T13:23:37.951Z,1.08
2023-02-27T13:26:16.717Z,1.30
2023-02-27T13:28:44.032Z,1.35
2023-02-27T13:31:44.865Z,1.30
2023-02-27T13:34:20.303Z,1.60
2023-02-27T13:36:52.568Z,1.70
2023-02-27T13:39:56.204Z,1.33
2023-02-27T13:42:27.214Z,1.75
2023-02-27T13:44:56.978Z,1.75
2023-02-27T13:47:29.888Z,1.67
2023-02-27T13:50:04.960Z,1.30
2023-02-27T13:52:37.725Z,1.20
2023-02-27T13:55:24.820Z,1.58
2023-02-27T13:57:54.007Z,1.40
2023-02-27T14:00:24.195Z,1.30
2023-02-27T14:03:00.202Z,1.45
2023-02-27T14:05:34.824Z,1.70
2023-02-27T14:08:08.704Z,1.70
2023-02-27T14:10:37.384Z,1.63
2023-02-27T14:13:06.800Z,1.40
2023-02-27T14:15:34.504Z,1.65
2023-02-27T14:18:16.039Z,1.30
2023-02-27T14:20:51.329Z,1.58
2023-02-27T14:23:28.375Z,1.52
2023-02-27T14:26:20.500Z,2.03
2023-02-27T14:28:55.877Z,1.45
2023-02-27T14:31:28.432Z,1.75
2023-02-27T14:33:58.764Z,1.88
2023-02-27T14:36:28.036Z,1.35
2023-02-27T14:38:59.663Z,1.45
2023-02-27T14:42:02.845Z,1.30
2023-02-27T14:44:39.976Z,1.35
2023-02-27T14:47:07.061Z,1.05
2023-02-27T14:49:35.964Z,1.13
2023-02-27T14:52:22.281Z,1.13
2023-02-27T14:54:50.322Z,1.00
2023-02-27T14:57:24.241Z,0.98
2023-02-27T14:59:53.884Z,1.02
2023-02-27T15:02:25.037Z,1.02
2023-02-27T15:05:00.866Z,0.88
2023-02-27T15:07:31.080Z,1.00
2023-02-27T15:10:02.088Z,0.98
2023-02-27T15:12:30.609Z,0.82
2023-02-27T15:15:00.111Z,0.68
2023-02-27T15:17:36.409Z,0.55
2023-02-27T15:20:21.998Z,0.50
2023-02-27T15:22:48.819Z,0.32
2023-02-27T15:25:36.571Z,0.57
2023-02-27T15:28:18.844Z,0.50
2023-02-27T15:30:51.403Z,0.43
2023-02-27T15:33:22.421Z,0.60
2023-02-27T15:35:49.214Z,0.35
2023-02-27T15:38:34.246Z,0.60
2023-02-27T15:41:03.007Z,0.35
2023-02-27T15:43:30.665Z,0.65
2023-02-27T15:45:58.301Z,0.82
2023-02-27T15:48:25.878Z,0.60
2023-02-27T15:50:57.076Z,0.52
2023-02-27T15:53:30.703Z,0.50
2023-02-27T15:56:00.688Z,0.70
2023-02-27T15:58:31.662Z,0.55
2023-02-27T16:01:11.309Z,0.65
